sensor_id;sensor_type;location;lat;lon;timestamp;P1;durP1;ratioP1;P2;durP2;ratioP2
9449;SDS011;4763;48.370;10.874;2023-12-20T00:00:00;4.67;;;2.40;;
9449;SDS011;4763;48.370;10.874;2023-12-20T00:02:27;1.93;;;1.43;;
9449;SDS011;4763;48.370;10.874;2023-12-20T00:04:59;3.50;;;1.70;;
9449;SDS011;4763;48.370;10.874;2023-12-20T00:07:33;3.03;;;2.10;;
9449;SDS011;4763;48.370;10.874;2023-12-20T00:10:00;2.93;;;2.03;;
9449;SDS011;4763;48.370;10.874;2023-12-20T00:12:27;2.10;;;1.60;;
9449;SDS011;4763;48.370;10.874;2023-12-20T00:14:54;2.58;;;2.03;;
9449;SDS011;4763;48.370;10.874;2023-12-20T00:17:21;2.50;;;1.80;;
9449;SDS011;4763;48.370;10.874;2023-12-20T00:19:49;1.70;;;1.40;;
9449;SDS011;4763;48.370;10.874;2023-12-20T00:22:21;1.93;;;1.60;;
9449;SDS011;4763;48.370;10.874;2023-12-20T00:24:50;2.00;;;1.70;;
9449;SDS011;4763;48.370;10.874;2023-12-20T00:27:17;2.23;;;2.03;;
9449;SDS011;4763;48.370;10.874;2023-12-20T00:29:46;2.50;;;1.50;;
9449;SDS011;4763;48.370;10.874;2023-12-20T00:32:15;2.10;;;1.63;;
9449;SDS011;4763;48.370;10.874;2023-12-20T00:34:41;2.83;;;2.10;;
9449;SDS011;4763;48.370;10.874;2023-12-20T00:37:09;3.03;;;2.10;;
9449;SDS011;4763;48.370;10.874;2023-12-20T00:39:41;2.23;;;1.60;;
9449;SDS011;4763;48.370;10.874;2023-12-20T00:42:08;3.53;;;2.00;;
9449;SDS011;4763;48.370;10.874;2023-12-20T00:44:34;2.87;;;1.90;;
9449;SDS011;4763;48.370;10.874;2023-12-20T00:47:01;2.63;;;1.70;;
9449;SDS011;4763;48.370;10.874;2023-12-20T00:49:28;2.77;;;2.10;;
9449;SDS011;4763;48.370;10.874;2023-12-20T00:51:56;2.63;;;2.13;;
9449;SDS011;4763;48.370;10.874;2023-12-20T00:54:23;2.33;;;1.90;;
9449;SDS011;4763;48.370;10.874;2023-12-20T00:56:52;1.87;;;1.60;;
9449;SDS011;4763;48.370;10.874;2023-12-20T00:59:18;2.22;;;1.98;;
9449;SDS011;4763;48.370;10.874;2023-12-20T01:01:45;2.40;;;1.90;;
9449;SDS011;4763;48.370;10.874;2023-12-20T01:04:13;1.93;;;1.73;;
9449;SDS011;4763;48.370;10.874;2023-12-20T01:06:44;2.80;;;1.60;;
9449;SDS011;4763;48.370;10.874;2023-12-20T01:09:11;2.53;;;2.10;;
9449;SDS011;4763;48.370;10.874;2023-12-20T01:11:38;2.60;;;1.70;;
9449;SDS011;4763;48.370;10.874;2023-12-20T01:14:07;2.55;;;1.95;;
9449;SDS011;4763;48.370;10.874;2023-12-20T01:16:34;2.70;;;1.98;;
9449;SDS011;4763;48.370;10.874;2023-12-20T01:19:10;2.10;;;1.70;;
9449;SDS011;4763;48.370;10.874;2023-12-20T01:21:41;2.17;;;1.77;;
9449;SDS011;4763;48.370;10.874;2023-12-20T01:24:10;2.00;;;1.67;;
9449;SDS011;4763;48.370;10.874;2023-12-20T01:26:38;2.27;;;1.80;;
9449;SDS011;4763;48.370;10.874;2023-12-20T01:29:12;2.17;;;1.70;;
9449;SDS011;4763;48.370;10.874;2023-12-20T01:31:41;4.17;;;1.73;;
9449;SDS011;4763;48.370;10.874;2023-12-20T01:34:09;2.77;;;1.73;;
9449;SDS011;4763;48.370;10.874;2023-12-20T01:40:10;2.00;;;1.70;;
9449;SDS011;4763;48.370;10.874;2023-12-20T01:42:57;3.97;;;1.83;;
9449;SDS011;4763;48.370;10.874;2023-12-20T01:45:28;2.13;;;1.90;;
9449;SDS011;4763;48.370;10.874;2023-12-20T01:47:57;2.27;;;1.83;;
9449;SDS011;4763;48.370;10.874;2023-12-20T01:50:29;2.13;;;1.60;;
9449;SDS011;4763;48.370;10.874;2023-12-20T01:52:57;2.50;;;1.60;;
9449;SDS011;4763;48.370;10.874;2023-12-20T01:55:27;2.43;;;1.73;;
9449;SDS011;4763;48.370;10.874;2023-12-20T01:57:57;1.97;;;1.60;;
9449;SDS011;4763;48.370;10.874;2023-12-20T02:00:28;2.00;;;1.80;;
9449;SDS011;4763;48.370;10.874;2023-12-20T02:02:56;2.83;;;2.10;;
9449;SDS011;4763;48.370;10.874;2023-12-20T02:05:26;1.70;;;1.60;;
9449;SDS011;4763;48.370;10.874;2023-12-20T02:07:53;1.73;;;1.50;;
9449;SDS011;4763;48.370;10.874;2023-12-20T02:10:20;2.07;;;1.80;;
9449;SDS011;4763;48.370;10.874;2023-12-20T02:12:48;2.87;;;1.67;;
9449;SDS011;4763;48.370;10.874;2023-12-20T02:15:14;2.10;;;1.70;;
9449;SDS011;4763;48.370;10.874;2023-12-20T02:17:43;1.93;;;1.60;;
9449;SDS011;4763;48.370;10.874;2023-12-20T02:20:11;1.90;;;1.70;;
9449;SDS011;4763;48.370;10.874;2023-12-20T02:22:39;3.30;;;1.80;;
9449;SDS011;4763;48.370;10.874;2023-12-20T02:25:06;2.37;;;1.63;;
9449;SDS011;4763;48.370;10.874;2023-12-20T02:27:33;3.53;;;1.60;;
9449;SDS011;4763;48.370;10.874;2023-12-20T02:30:01;2.00;;;1.60;;
9449;SDS011;4763;48.370;10.874;2023-12-20T02:32:28;2.30;;;1.87;;
9449;SDS011;4763;48.370;10.874;2023-12-20T02:34:55;4.80;;;2.00;;
9449;SDS011;4763;48.370;10.874;2023-12-20T02:37:24;2.33;;;2.00;;
9449;SDS011;4763;48.370;10.874;2023-12-20T02:39:57;3.10;;;2.00;;
9449;SDS011;4763;48.370;10.874;2023-12-20T02:42:47;2.27;;;1.97;;
9449;SDS011;4763;48.370;10.874;2023-12-20T02:45:20;2.20;;;2.00;;
9449;SDS011;4763;48.370;10.874;2023-12-20T02:48:00;3.97;;;2.37;;
9449;SDS011;4763;48.370;10.874;2023-12-20T02:50:33;2.47;;;1.97;;
9449;SDS011;4763;48.370;10.874;2023-12-20T02:53:02;2.55;;;2.15;;
9449;SDS011;4763;48.370;10.874;2023-12-20T02:55:34;4.13;;;2.03;;
9449;SDS011;4763;48.370;10.874;2023-12-20T02:58:16;2.37;;;2.00;;
9449;SDS011;4763;48.370;10.874;2023-12-20T04:19:06;4.37;;;3.07;;
9449;SDS011;4763;48.370;10.874;2023-12-20T04:21:33;3.80;;;3.00;;
9449;SDS011;4763;48.370;10.874;2023-12-20T04:24:00;3.90;;;3.17;;
9449;SDS011;4763;48.370;10.874;2023-12-20T05:55:27;3.17;;;2.57;;
9449;SDS011;4763;48.370;10.874;2023-12-20T05:57:54;4.47;;;2.57;;
9449;SDS011;4763;48.370;10.874;2023-12-20T06:00:21;3.43;;;3.00;;
9449;SDS011;4763;48.370;10.874;2023-12-20T06:02:48;3.63;;;2.67;;
9449;SDS011;4763;48.370;10.874;2023-12-20T06:05:15;3.03;;;2.63;;
9449;SDS011;4763;48.370;10.874;2023-12-20T06:07:42;4.03;;;3.10;;
9449;SDS011;4763;48.370;10.874;2023-12-20T06:10:17;4.03;;;3.20;;
9449;SDS011;4763;48.370;10.874;2023-12-20T06:12:48;3.97;;;3.13;;
9449;SDS011;4763;48.370;10.874;2023-12-20T06:15:16;3.83;;;3.40;;
9449;SDS011;4763;48.370;10.874;2023-12-20T06:17:43;3.63;;;2.73;;
9449;SDS011;4763;48.370;10.874;2023-12-20T06:20:12;5.97;;;3.77;;
9449;SDS011;4763;48.370;10.874;2023-12-20T06:22:39;4.63;;;3.47;;
9449;SDS011;4763;48.370;10.874;2023-12-20T06:25:06;6.33;;;4.63;;
9449;SDS011;4763;48.370;10.874;2023-12-20T06:27:34;13.30;;;8.00;;
9449;SDS011;4763;48.370;10.874;2023-12-20T06:30:02;12.87;;;7.63;;
9449;SDS011;4763;48.370;10.874;2023-12-20T06:32:30;14.17;;;8.73;;
9449;SDS011;4763;48.370;10.874;2023-12-20T06:34:57;8.87;;;5.73;;
9449;SDS011;4763;48.370;10.874;2023-12-20T06:37:23;4.17;;;3.47;;
9449;SDS011;4763;48.370;10.874;2023-12-20T06:39:50;4.50;;;3.80;;
9449;SDS011;4763;48.370;10.874;2023-12-20T06:42:17;4.00;;;3.50;;
9449;SDS011;4763;48.370;10.874;2023-12-20T06:44:44;4.10;;;3.53;;
9449;SDS011;4763;48.370;10.874;2023-12-20T06:47:12;6.17;;;4.17;;
9449;SDS011;4763;48.370;10.874;2023-12-20T06:49:39;4.77;;;4.23;;
9449;SDS011;4763;48.370;10.874;2023-12-20T06:52:06;6.40;;;4.47;;
9449;SDS011;4763;48.370;10.874;2023-12-20T06:54:33;5.93;;;4.50;;
9449;SDS011;4763;48.370;10.874;2023-12-20T06:57:02;6.55;;;5.28;;
9449;SDS011;4763;48.370;10.874;2023-12-20T06:59:31;7.40;;;5.47;;
9449;SDS011;4763;48.370;10.874;2023-12-20T07:01:57;7.30;;;5.37;;
9449;SDS011;4763;48.370;10.874;2023-12-20T07:04:25;5.87;;;4.87;;
9449;SDS011;4763;48.370;10.874;2023-12-20T07:06:52;7.53;;;5.70;;
9449;SDS011;4763;48.370;10.874;2023-12-20T07:09:22;7.87;;;5.63;;
9449;SDS011;4763;48.370;10.874;2023-12-20T07:11:49;7.47;;;4.83;;
9449;SDS011;4763;48.370;10.874;2023-12-20T07:14:15;5.60;;;4.57;;
9449;SDS011;4763;48.370;10.874;2023-12-20T07:16:42;6.50;;;5.43;;
9449;SDS011;4763;48.370;10.874;2023-12-20T09:23:52;4.63;;;3.90;;
9449;SDS011;4763;48.370;10.874;2023-12-20T09:26:18;5.27;;;3.43;;
9449;SDS011;4763;48.370;10.874;2023-12-20T09:28:46;5.27;;;3.80;;
9449;SDS011;4763;48.370;10.874;2023-12-20T09:31:12;4.70;;;3.77;;
9449;SDS011;4763;48.370;10.874;2023-12-20T09:33:39;4.30;;;3.80;;
9449;SDS011;4763;48.370;10.874;2023-12-20T09:36:06;5.13;;;4.00;;
9449;SDS011;4763;48.370;10.874;2023-12-20T09:38:33;8.13;;;4.20;;
9449;SDS011;4763;48.370;10.874;2023-12-20T09:41:02;5.40;;;3.73;;
9449;SDS011;4763;48.370;10.874;2023-12-20T09:43:29;5.50;;;3.63;;
9449;SDS011;4763;48.370;10.874;2023-12-20T09:58:25;5.70;;;4.30;;
9449;SDS011;4763;48.370;10.874;2023-12-20T10:00:51;3.73;;;3.33;;
9449;SDS011;4763;48.370;10.874;2023-12-20T10:03:20;4.57;;;3.27;;
9449;SDS011;4763;48.370;10.874;2023-12-20T10:05:51;4.00;;;3.10;;
9449;SDS011;4763;48.370;10.874;2023-12-20T10:08:20;3.50;;;2.90;;
9449;SDS011;4763;48.370;10.874;2023-12-20T10:10:48;3.87;;;3.00;;
9449;SDS011;4763;48.370;10.874;2023-12-20T10:13:15;5.17;;;3.27;;
9449;SDS011;4763;48.370;10.874;2023-12-20T14:16:12;5.67;;;1.90;;
9449;SDS011;4763;48.370;10.874;2023-12-20T14:18:39;5.47;;;1.63;;
9449;SDS011;4763;48.370;10.874;2023-12-20T14:21:07;4.37;;;1.70;;
9449;SDS011;4763;48.370;10.874;2023-12-20T14:23:34;3.10;;;1.67;;
9449;SDS011;4763;48.370;10.874;2023-12-20T17:04:10;7.00;;;2.67;;
9449;SDS011;4763;48.370;10.874;2023-12-20T17:45:47;2.57;;;1.50;;
9449;SDS011;4763;48.370;10.874;2023-12-20T17:48:20;3.57;;;1.70;;
9449;SDS011;4763;48.370;10.874;2023-12-20T17:50:57;2.13;;;1.47;;
9449;SDS011;4763;48.370;10.874;2023-12-20T17:53:27;1.73;;;1.43;;
